createdAt,value
2023-04-09T00:00:40.087Z,26.80
2023-04-09T00:03:08.470Z,30.85
2023-04-09T00:05:40.470Z,29.05
2023-04-09T00:08:09.006Z,28.30
2023-04-09T00:10:38.549Z,29.65
2023-04-09T00:13:06.796Z,29.20
2023-04-09T00:15:35.012Z,29.02
2023-04-09T00:18:03.302Z,29.92
2023-04-09T00:20:31.454Z,28.05
2023-04-09T00:22:59.659Z,27.92
2023-04-09T00:25:28.726Z,25.75
2023-04-09T00:27:59.038Z,37.85
2023-04-09T00:30:29.961Z,50.58
2023-04-09T00:32:58.342Z,33.58
2023-04-09T00:35:26.618Z,35.42
2023-04-09T00:37:54.990Z,37.90
2023-04-09T00:40:23.189Z,32.95
2023-04-09T00:42:51.461Z,29.42
2023-04-09T00:45:21.208Z,30.23
2023-04-09T00:47:49.579Z,22.77
2023-04-09T00:50:18.124Z,25.67
2023-04-09T00:52:47.104Z,24.40
2023-04-09T00:55:15.477Z,24.75
2023-04-09T00:57:43.763Z,25.92
2023-04-09T01:00:13.249Z,23.75
2023-04-09T01:02:44.919Z,26.60
2023-04-09T01:05:14.222Z,27.42
2023-04-09T01:07:55.880Z,26.65
2023-04-09T01:10:34.784Z,24.52
2023-04-09T01:13:10.740Z,23.75
2023-04-09T01:15:45.392Z,26.02
2023-04-09T01:18:20.304Z,26.55
2023-04-09T01:20:56.334Z,28.23
2023-04-09T01:23:35.372Z,30.20
2023-04-09T01:26:08.721Z,31.92
2023-04-09T01:28:52.495Z,26.50
2023-04-09T01:31:26.425Z,24.02
2023-04-09T01:33:55.099Z,22.70
2023-04-09T01:36:25.884Z,20.48
2023-04-09T01:38:57.289Z,22.02
2023-04-09T01:41:27.171Z,27.08
2023-04-09T01:43:57.449Z,21.63
2023-04-09T01:46:27.293Z,27.90
2023-04-09T01:48:56.936Z,25.85
2023-04-09T01:51:26.625Z,25.25
2023-04-09T01:53:54.902Z,22.70
2023-04-09T01:56:23.098Z,29.63
2023-04-09T01:58:52.750Z,23.23
2023-04-09T02:01:32.312Z,22.80
2023-04-09T02:04:04.387Z,22.23
2023-04-09T02:06:39.858Z,24.75
2023-04-09T02:09:10.619Z,21.38
2023-04-09T02:11:41.823Z,19.17
2023-04-09T02:14:12.699Z,18.63
2023-04-09T02:17:02.773Z,19.27
2023-04-09T02:19:40.368Z,17.27
2023-04-09T02:22:08.933Z,19.08
2023-04-09T02:24:37.536Z,18.45
2023-04-09T02:27:06.226Z,17.42
2023-04-09T02:29:34.467Z,18.48
2023-04-09T02:32:04.101Z,17.27
2023-04-09T02:34:32.302Z,18.48
2023-04-09T02:37:00.631Z,18.98
2023-04-09T02:39:28.874Z,25.38
2023-04-09T02:41:57.941Z,28.95
2023-04-09T02:44:28.571Z,26.15
2023-04-09T02:46:58.211Z,29.27
2023-04-09T02:49:27.917Z,31.10
2023-04-09T02:51:56.599Z,19.83
2023-04-09T02:54:24.794Z,21.48
2023-04-09T02:56:53.055Z,21.20
2023-04-09T02:59:21.332Z,22.95
2023-04-09T03:01:49.853Z,21.35
2023-04-09T03:04:18.239Z,22.95
2023-04-09T03:06:47.986Z,20.48
2023-04-09T03:09:16.214Z,22.13
2023-04-09T03:11:44.450Z,21.95
2023-04-09T03:14:12.647Z,20.45
2023-04-09T03:16:41.012Z,18.92
2023-04-09T03:19:09.376Z,21.05
2023-04-09T03:21:38.662Z,16.70
2023-04-09T03:24:08.888Z,16.63
2023-04-09T03:26:38.022Z,19.52
2023-04-09T03:29:08.514Z,17.95
2023-04-09T03:31:36.913Z,18.45
2023-04-09T03:34:05.149Z,21.05
2023-04-09T03:36:34.669Z,21.27
2023-04-09T03:39:13.106Z,20.48
2023-04-09T03:41:44.957Z,24.42
2023-04-09T03:44:16.720Z,22.48
2023-04-09T03:47:03.633Z,27.48
2023-04-09T03:49:32.012Z,20.48
2023-04-09T03:52:08.999Z,17.50
2023-04-09T03:54:43.576Z,18.40
2023-04-09T03:57:17.679Z,19.20
2023-04-09T03:59:48.522Z,19.10
2023-04-09T04:02:20.671Z,17.70
2023-04-09T04:04:58.354Z,17.73
2023-04-09T04:07:31.653Z,18.10
2023-04-09T04:10:08.911Z,18.05
2023-04-09T04:12:37.265Z,16.60
2023-04-09T04:15:10.655Z,16.35
2023-04-09T04:17:45.458Z,17.73
2023-04-09T04:20:23.050Z,16.75
2023-04-09T04:22:58.472Z,16.95
2023-04-09T04:25:29.462Z,18.00
2023-04-09T04:27:58.225Z,18.90
2023-04-09T04:33:08.139Z,17.83
2023-04-09T04:36:07.634Z,14.30
2023-04-09T04:38:42.939Z,13.00
2023-04-09T04:41:19.698Z,14.65
2023-04-09T04:43:55.071Z,14.50
2023-04-09T04:46:26.176Z,12.32
2023-04-09T04:48:54.683Z,11.50
2023-04-09T04:51:24.187Z,13.60
2023-04-09T04:54:03.098Z,14.48
2023-04-09T04:56:33.122Z,13.85
2023-04-09T04:59:11.626Z,12.50
2023-04-09T05:01:55.037Z,12.50
2023-04-09T05:04:23.561Z,12.80
2023-04-09T05:06:52.062Z,12.50
2023-04-09T05:09:23.621Z,11.30
2023-04-09T05:12:03.770Z,10.32
2023-04-09T05:14:32.988Z,11.52
2023-04-09T05:17:01.242Z,11.00
2023-04-09T05:19:40.289Z,11.40
2023-04-09T05:22:08.744Z,17.63
2023-04-09T05:24:36.893Z,16.25
2023-04-09T05:27:06.651Z,15.50
2023-04-09T05:29:34.935Z,14.13
2023-04-09T05:32:04.596Z,14.65
2023-04-09T05:34:37.109Z,12.98
2023-04-09T05:37:06.647Z,12.65
2023-04-09T05:39:35.813Z,12.57
2023-04-09T05:42:06.727Z,13.52
2023-04-09T05:44:51.972Z,12.93
2023-04-09T05:47:22.081Z,12.13
2023-04-09T05:50:02.123Z,11.43
2023-04-09T05:52:31.649Z,11.07
2023-04-09T05:54:59.869Z,11.48
2023-04-09T05:57:42.311Z,11.32
2023-04-09T06:00:11.754Z,10.75
2023-04-09T06:02:46.153Z,9.73
2023-04-09T06:05:14.992Z,10.07
2023-04-09T06:07:43.185Z,10.60
2023-04-09T06:10:11.429Z,10.60
2023-04-09T06:12:42.009Z,11.52
2023-04-09T06:15:11.632Z,11.90
2023-04-09T06:17:39.790Z,11.10
2023-04-09T06:20:09.025Z,9.55
2023-04-09T06:22:37.261Z,10.65
2023-04-09T06:25:06.251Z,8.30
2023-04-09T06:27:34.533Z,8.38
2023-04-09T06:30:04.229Z,8.52
2023-04-09T06:32:37.614Z,8.50
2023-04-09T06:35:11.794Z,8.70
2023-04-09T06:37:39.940Z,8.40
2023-04-09T06:40:09.555Z,9.25
2023-04-09T06:42:37.820Z,8.80
2023-04-09T06:45:15.073Z,9.18
2023-04-09T06:47:43.322Z,9.07
2023-04-09T06:50:11.783Z,9.38
2023-04-09T06:52:39.998Z,9.38
2023-04-09T06:55:08.717Z,8.85
2023-04-09T06:57:37.862Z,9.13
2023-04-09T07:00:07.240Z,8.05
2023-04-09T07:02:37.484Z,8.82
2023-04-09T07:05:06.494Z,8.70
2023-04-09T07:07:34.684Z,7.53
2023-04-09T07:10:03.452Z,7.50
2023-04-09T07:12:33.567Z,7.82
2023-04-09T07:15:02.956Z,7.20
2023-04-09T07:17:33.014Z,7.43
2023-04-09T07:20:03.386Z,8.32
2023-04-09T07:22:31.921Z,7.97
2023-04-09T07:25:00.722Z,7.50
2023-04-09T07:27:29.912Z,7.95
2023-04-09T07:29:59.123Z,7.55
2023-04-09T07:32:29.179Z,7.72
2023-04-09T07:34:59.424Z,8.75
2023-04-09T07:37:29.112Z,8.02
2023-04-09T07:39:57.265Z,9.02
2023-04-09T07:42:25.692Z,8.70
2023-04-09T07:44:53.872Z,8.70
2023-04-09T07:47:23.961Z,8.38
2023-04-09T07:49:52.172Z,7.72
2023-04-09T07:52:20.494Z,8.98
2023-04-09T07:54:50.137Z,8.90
2023-04-09T07:57:18.295Z,9.13
2023-04-09T07:59:46.814Z,8.43
2023-04-09T08:02:15.768Z,8.40
2023-04-09T08:04:44.363Z,8.52
2023-04-09T08:07:12.736Z,8.30
2023-04-09T08:09:41.110Z,8.18
2023-04-09T08:12:11.117Z,8.27
2023-04-09T08:14:39.346Z,8.43
2023-04-09T08:17:07.591Z,8.90
2023-04-09T08:19:35.950Z,7.90
2023-04-09T08:22:04.522Z,8.07
2023-04-09T08:24:32.731Z,8.05
2023-04-09T08:27:01.897Z,8.30
2023-04-09T08:29:32.126Z,8.57
2023-04-09T08:32:00.426Z,8.60
2023-04-09T08:34:28.696Z,8.10
2023-04-09T08:36:57.144Z,8.13
2023-04-09T08:39:25.490Z,8.30
2023-04-09T08:41:53.786Z,7.65
2023-04-09T08:44:22.205Z,9.00
2023-04-09T08:46:52.650Z,7.78
2023-04-09T08:49:21.048Z,7.90
2023-04-09T08:51:50.440Z,7.28
2023-04-09T08:54:20.274Z,7.85
2023-04-09T08:56:48.729Z,7.20
2023-04-09T08:59:19.244Z,8.02
2023-04-09T09:01:52.872Z,7.93
2023-04-09T09:04:22.632Z,8.48
2023-04-09T09:06:50.888Z,8.15
2023-04-09T09:09:19.935Z,8.38
2023-04-09T09:11:50.385Z,763.10
2023-04-09T09:14:20.791Z,920.95
2023-04-09T09:17:08.340Z,204.15
2023-04-09T09:19:38.222Z,160.13
2023-04-09T09:22:08.943Z,8.45
2023-04-09T09:24:48.450Z,24.80
2023-04-09T09:27:36.789Z,8.43
2023-04-09T09:30:06.532Z,8.65
2023-04-09T09:32:35.138Z,7.38
2023-04-09T09:35:06.859Z,10.98
2023-04-09T09:37:35.536Z,8.27
2023-04-09T09:40:04.430Z,7.07
2023-04-09T09:42:33.192Z,7.70
2023-04-09T09:45:02.703Z,7.07
2023-04-09T09:47:32.184Z,22.88
2023-04-09T09:50:00.392Z,13.60
2023-04-09T09:52:30.982Z,7.25
2023-04-09T09:55:04.322Z,10.85
2023-04-09T09:57:35.161Z,22.77
2023-04-09T10:00:04.910Z,7.47
2023-04-09T10:02:49.304Z,7.83
2023-04-09T10:05:17.798Z,7.05
2023-04-09T10:07:49.320Z,10.55
2023-04-09T10:10:17.933Z,7.32
2023-04-09T10:12:47.256Z,7.63
2023-04-09T10:15:15.904Z,7.30
2023-04-09T10:17:44.209Z,7.38
2023-04-09T10:20:16.823Z,7.10
2023-04-09T10:22:49.517Z,6.45
2023-04-09T10:25:18.360Z,6.72
2023-04-09T10:27:49.241Z,5.72
2023-04-09T10:30:33.612Z,8.05
2023-04-09T10:33:12.305Z,5.10
2023-04-09T10:35:40.786Z,5.65
2023-04-09T10:38:11.305Z,4.97
2023-04-09T10:40:43.604Z,5.43
2023-04-09T10:43:12.878Z,8.32
2023-04-09T10:45:42.682Z,4.68
2023-04-09T10:48:15.130Z,4.90
2023-04-09T10:50:46.391Z,5.10
2023-04-09T10:53:26.545Z,4.50
2023-04-09T10:55:56.301Z,5.20
2023-04-09T10:58:24.485Z,4.75
2023-04-09T11:00:52.998Z,4.50
2023-04-09T11:03:23.836Z,5.80
2023-04-09T11:05:55.466Z,4.53
2023-04-09T11:08:25.154Z,4.13
2023-04-09T11:10:56.857Z,5.00
2023-04-09T11:13:25.777Z,4.40
2023-04-09T11:15:57.479Z,4.38
2023-04-09T11:18:27.511Z,3.88
2023-04-09T11:20:56.782Z,3.75
2023-04-09T11:23:27.093Z,5.18
2023-04-09T11:25:56.463Z,5.15
2023-04-09T11:28:25.727Z,3.78
2023-04-09T11:30:54.374Z,3.10
2023-04-09T11:33:22.651Z,4.07
2023-04-09T11:35:52.200Z,3.60
2023-04-09T11:38:20.402Z,6.45
2023-04-09T11:40:51.330Z,4.05
2023-04-09T11:43:21.182Z,3.10
2023-04-09T11:45:50.385Z,3.70
2023-04-09T11:48:19.353Z,4.68
2023-04-09T11:50:48.199Z,4.40
2023-04-09T11:53:22.059Z,4.68
2023-04-09T11:55:53.404Z,4.00
2023-04-09T11:58:24.646Z,4.70
2023-04-09T12:00:55.106Z,4.03
2023-04-09T12:03:30.877Z,5.25
2023-04-09T12:06:02.688Z,4.78
2023-04-09T12:08:31.327Z,6.97
2023-04-09T12:11:09.761Z,5.25
2023-04-09T12:16:08.338Z,7.90
2023-04-09T12:18:38.505Z,6.10
2023-04-09T12:21:06.977Z,5.72
2023-04-09T12:23:35.308Z,4.38
2023-04-09T12:26:05.260Z,3.72
2023-04-09T12:28:33.532Z,5.78
2023-04-09T12:31:03.606Z,4.43
2023-04-09T12:33:32.336Z,4.28
2023-04-09T12:36:00.654Z,4.38
2023-04-09T12:38:28.897Z,5.45
2023-04-09T12:40:57.197Z,4.55
2023-04-09T12:43:26.766Z,5.00
2023-04-09T12:45:55.052Z,3.97
2023-04-09T12:48:23.749Z,6.13
2023-04-09T12:50:52.188Z,3.40
2023-04-09T12:53:20.536Z,3.90
2023-04-09T12:55:48.840Z,4.55
2023-04-09T12:58:17.045Z,4.70
2023-04-09T13:00:47.227Z,3.90
2023-04-09T13:03:16.931Z,3.90
2023-04-09T13:05:45.404Z,5.50
2023-04-09T13:08:13.564Z,4.70
2023-04-09T13:10:42.148Z,4.07
2023-04-09T13:13:12.709Z,4.22
2023-04-09T13:15:43.310Z,5.40
2023-04-09T13:18:13.800Z,16.88
2023-04-09T13:20:42.079Z,10.27
2023-04-09T13:23:10.231Z,3.55
2023-04-09T13:25:38.438Z,4.10
2023-04-09T13:28:06.672Z,4.47
2023-04-09T13:30:35.691Z,4.95
2023-04-09T13:33:04.015Z,3.70
2023-04-09T13:35:33.682Z,3.20
2023-04-09T13:38:02.067Z,3.53
2023-04-09T13:40:30.437Z,3.17
2023-04-09T13:42:58.654Z,3.60
2023-04-09T13:45:26.914Z,3.20
2023-04-09T13:47:55.290Z,3.65
2023-04-09T13:50:23.989Z,3.90
2023-04-09T13:52:53.834Z,3.97
2023-04-09T13:55:22.107Z,3.10
2023-04-09T13:57:50.334Z,4.07
2023-04-09T14:00:20.022Z,3.60
2023-04-09T14:02:48.430Z,3.00
2023-04-09T14:05:17.205Z,3.60
2023-04-09T14:07:45.954Z,3.17
2023-04-09T14:10:16.057Z,2.63
2023-04-09T14:12:44.276Z,2.78
2023-04-09T14:15:13.024Z,3.05
2023-04-09T14:17:42.021Z,7.05
2023-04-09T14:20:10.904Z,4.00
2023-04-09T14:22:39.576Z,2.50
2023-04-09T14:25:08.818Z,4.55
2023-04-09T14:27:39.132Z,2.80
2023-04-09T14:30:09.055Z,3.92
2023-04-09T14:32:37.626Z,8.63
2023-04-09T14:35:06.881Z,3.72
2023-04-09T14:37:35.684Z,2.70
2023-04-09T14:40:04.202Z,4.35
2023-04-09T14:42:32.861Z,5.22
2023-04-09T14:45:03.256Z,5.50
2023-04-09T14:47:31.969Z,3.45
2023-04-09T14:50:00.494Z,2.70
2023-04-09T14:52:30.581Z,2.50
2023-04-09T14:54:59.079Z,2.78
2023-04-09T14:57:27.584Z,3.38
2023-04-09T14:59:55.947Z,2.83
2023-04-09T15:02:26.291Z,2.63
2023-04-09T15:04:55.029Z,3.70
2023-04-09T15:07:25.143Z,3.55
2023-04-09T15:09:53.719Z,3.22
2023-04-09T15:12:22.349Z,3.50
2023-04-09T15:14:51.045Z,5.07
2023-04-09T15:17:19.512Z,3.22
2023-04-09T15:19:49.682Z,4.25
2023-04-09T15:22:18.370Z,4.22
2023-04-09T15:24:46.907Z,4.53
2023-04-09T15:27:16.286Z,3.40
2023-04-09T15:29:44.935Z,3.85
2023-04-09T15:32:13.762Z,6.03
2023-04-09T15:34:42.221Z,5.72
2023-04-09T15:37:12.243Z,7.55
2023-04-09T15:39:40.714Z,10.02
2023-04-09T15:42:10.722Z,5.22
2023-04-09T15:44:40.307Z,4.20
2023-04-09T15:47:09.149Z,2.83
2023-04-09T15:49:37.952Z,2.85
2023-04-09T15:52:06.641Z,3.65
2023-04-09T15:54:36.414Z,3.97
2023-04-09T15:57:05.190Z,4.15
2023-04-09T15:59:33.749Z,7.53
2023-04-09T16:02:02.202Z,6.70
2023-04-09T16:04:30.705Z,5.90
2023-04-09T16:06:59.240Z,3.70
2023-04-09T16:09:27.814Z,3.58
2023-04-09T16:11:57.533Z,4.38
2023-04-09T16:14:26.101Z,5.30
2023-04-09T16:16:54.639Z,3.83
2023-04-09T16:19:24.690Z,4.40
2023-04-09T16:21:53.365Z,8.57
2023-04-09T16:24:21.538Z,9.43
2023-04-09T16:26:49.929Z,7.43
2023-04-09T16:29:19.566Z,8.20
2023-04-09T16:31:47.759Z,6.13
2023-04-09T16:34:15.980Z,10.88
2023-04-09T16:36:44.741Z,11.75
2023-04-09T16:39:13.019Z,5.32
2023-04-09T16:41:41.345Z,14.32
2023-04-09T16:44:09.601Z,9.40
2023-04-09T16:46:39.238Z,33.00
2023-04-09T16:49:07.449Z,51.67
2023-04-09T16:51:35.849Z,48.67
2023-04-09T16:54:04.044Z,24.90
2023-04-09T16:56:32.280Z,13.18
2023-04-09T16:59:00.498Z,10.45
2023-04-09T17:01:29.074Z,8.52
2023-04-09T17:04:00.762Z,7.68
2023-04-09T17:06:29.460Z,15.18
2023-04-09T17:08:58.030Z,27.05
2023-04-09T17:11:26.591Z,28.38
2023-04-09T17:13:55.045Z,28.17
2023-04-09T17:16:23.325Z,20.25
2023-04-09T17:18:51.854Z,11.40
2023-04-09T17:21:21.670Z,8.68
2023-04-09T17:23:49.879Z,6.45
2023-04-09T17:26:18.134Z,7.20
2023-04-09T17:28:46.978Z,7.60
2023-04-09T17:31:16.289Z,8.35
2023-04-09T17:33:47.099Z,8.27
2023-04-09T17:36:15.466Z,8.40
2023-04-09T17:38:45.049Z,9.93
2023-04-09T17:41:13.347Z,10.10
2023-04-09T17:43:41.533Z,11.02
2023-04-09T17:46:09.867Z,11.23
2023-04-09T17:48:38.223Z,12.13
2023-04-09T17:51:07.402Z,12.38
2023-04-09T17:53:35.660Z,11.00
2023-04-09T17:56:05.686Z,11.85
2023-04-09T17:58:34.270Z,12.95
2023-04-09T18:01:02.560Z,12.10
2023-04-09T18:03:31.055Z,10.77
2023-04-09T18:06:00.712Z,14.95
2023-04-09T18:08:28.892Z,12.10
2023-04-09T18:11:11.433Z,13.82
2023-04-09T18:13:43.929Z,16.40
2023-04-09T18:16:13.221Z,14.32
2023-04-09T18:18:41.473Z,15.30
2023-04-09T18:21:09.685Z,15.27
2023-04-09T18:23:39.584Z,16.52
2023-04-09T18:26:07.900Z,16.42
2023-04-09T18:28:37.698Z,16.85
2023-04-09T18:31:07.453Z,18.95
2023-04-09T18:33:36.529Z,24.17
2023-04-09T18:36:05.245Z,24.63
2023-04-09T18:38:33.665Z,25.00
2023-04-09T18:41:02.840Z,19.30
2023-04-09T18:43:31.208Z,25.63
2023-04-09T18:45:59.970Z,49.22
2023-04-09T18:48:29.562Z,58.72
2023-04-09T18:50:57.773Z,60.55
2023-04-09T18:53:26.744Z,80.13
2023-04-09T18:55:54.890Z,80.43
2023-04-09T18:58:24.059Z,82.10
2023-04-09T19:00:52.226Z,48.42
2023-04-09T19:03:21.267Z,33.75
2023-04-09T19:05:52.654Z,40.33
2023-04-09T19:08:20.921Z,56.40
2023-04-09T19:10:49.171Z,65.45
2023-04-09T19:13:18.301Z,44.38
2023-04-09T19:15:46.625Z,43.90
2023-04-09T19:18:14.948Z,38.33
2023-04-09T19:20:43.220Z,52.65
2023-04-09T19:23:12.843Z,36.33
2023-04-09T19:25:41.114Z,35.63
2023-04-09T19:28:09.388Z,37.65
2023-04-09T19:30:37.555Z,42.95
2023-04-09T19:33:05.939Z,44.90
2023-04-09T19:35:35.885Z,39.00
2023-04-09T19:38:05.090Z,65.50
2023-04-09T19:40:34.889Z,43.72
2023-04-09T19:43:03.164Z,40.30
2023-04-09T19:45:31.421Z,41.03
2023-04-09T19:47:59.656Z,39.83
2023-04-09T19:50:27.949Z,39.58
2023-04-09T19:52:56.521Z,47.45
2023-04-09T19:55:25.054Z,48.90
2023-04-09T19:57:54.735Z,46.38
2023-04-09T20:00:22.952Z,43.90
2023-04-09T20:02:51.687Z,45.53
2023-04-09T20:05:21.059Z,49.42
2023-04-09T20:07:49.597Z,49.33
2023-04-09T20:10:18.443Z,51.75
2023-04-09T20:12:48.568Z,41.78
2023-04-09T20:15:20.073Z,37.20
2023-04-09T20:17:49.300Z,33.45
2023-04-09T20:20:20.022Z,29.95
2023-04-09T20:22:56.292Z,30.13
2023-04-09T20:25:25.761Z,34.30
2023-04-09T20:27:55.061Z,31.75
2023-04-09T20:30:24.688Z,29.45
2023-04-09T20:32:52.998Z,27.98
2023-04-09T20:35:21.738Z,31.20
2023-04-09T20:37:50.059Z,33.78
2023-04-09T20:40:18.249Z,35.40
2023-04-09T20:42:46.380Z,38.08
2023-04-09T20:45:14.648Z,35.55
2023-04-09T20:47:44.381Z,34.42
2023-04-09T20:50:13.043Z,34.63
2023-04-09T20:52:41.292Z,35.92
2023-04-09T20:55:10.082Z,32.90
2023-04-09T20:57:38.226Z,28.25
2023-04-09T21:00:07.998Z,27.65
2023-04-09T21:02:36.418Z,23.95
2023-04-09T21:05:19.587Z,23.75
2023-04-09T21:07:50.885Z,25.85
2023-04-09T21:10:19.306Z,24.80
2023-04-09T21:12:47.622Z,30.30
2023-04-09T21:15:16.011Z,31.98
2023-04-09T21:17:44.463Z,30.40
2023-04-09T21:20:15.164Z,31.35
2023-04-09T21:22:43.482Z,33.05
2023-04-09T21:25:13.793Z,34.45
2023-04-09T21:27:43.364Z,35.22
2023-04-09T21:30:12.107Z,35.65
2023-04-09T21:32:40.417Z,37.15
2023-04-09T21:35:09.159Z,31.13
2023-04-09T21:37:39.312Z,32.72
2023-04-09T21:40:08.884Z,32.15
2023-04-09T21:42:37.401Z,31.88
2023-04-09T21:45:06.626Z,31.50
2023-04-09T21:47:34.926Z,34.40
2023-04-09T21:50:04.085Z,34.60
2023-04-09T21:52:32.611Z,29.50
2023-04-09T21:55:02.346Z,31.13
2023-04-09T21:57:30.946Z,30.48
2023-04-09T21:59:59.889Z,30.00
2023-04-09T22:02:28.683Z,31.17
2023-04-09T22:04:57.088Z,35.65
2023-04-09T22:07:25.860Z,31.60
2023-04-09T22:09:55.425Z,28.67
2023-04-09T22:12:25.364Z,28.45
2023-04-09T22:14:53.464Z,29.58
2023-04-09T22:17:21.625Z,29.50
2023-04-09T22:19:51.121Z,28.80
2023-04-09T22:22:19.251Z,23.55
2023-04-09T22:24:47.414Z,19.85
2023-04-09T22:27:15.587Z,25.50
2023-04-09T22:29:45.084Z,24.70
2023-04-09T22:32:13.554Z,26.17
2023-04-09T22:34:41.847Z,26.50
2023-04-09T22:37:10.073Z,26.80
2023-04-09T22:39:38.220Z,24.95
2023-04-09T22:42:06.433Z,27.92
2023-04-09T22:44:34.566Z,27.63
2023-04-09T22:47:04.160Z,24.85
2023-04-09T22:49:32.340Z,26.10
2023-04-09T22:52:00.486Z,25.00
2023-04-09T22:54:30.134Z,24.00
2023-04-09T22:56:58.416Z,31.88
2023-04-09T22:59:37.191Z,49.05
2023-04-09T23:02:09.438Z,44.67
2023-04-09T23:04:37.817Z,36.15
2023-04-09T23:07:06.129Z,52.42
2023-04-09T23:09:34.442Z,36.80
2023-04-09T23:12:03.443Z,23.55
2023-04-09T23:14:31.603Z,21.40
2023-04-09T23:16:59.773Z,20.75
2023-04-09T23:19:29.334Z,17.77
2023-04-09T23:21:57.481Z,22.08
2023-04-09T23:24:25.751Z,22.67
2023-04-09T23:26:53.900Z,21.38
2023-04-09T23:29:22.060Z,24.90
2023-04-09T23:31:50.346Z,25.48
2023-04-09T23:34:18.575Z,26.38
2023-04-09T23:36:48.147Z,25.10
2023-04-09T23:39:16.259Z,24.20
2023-04-09T23:41:44.482Z,23.60
2023-04-09T23:44:12.651Z,20.48
2023-04-09T23:46:41.826Z,19.92
2023-04-09T23:49:10.025Z,22.00
2023-04-09T23:51:38.266Z,23.00
2023-04-09T23:54:07.841Z,24.25
2023-04-09T23:56:36.378Z,34.28
2023-04-09T23:59:04.534Z,36.60
